createdAt,value
2018-07-27T00:04:46.052Z,96.70
2018-07-27T00:09:49.694Z,97.10
2018-07-27T00:14:53.551Z,97.80
2018-07-27T00:19:57.375Z,98.10
2018-07-27T00:25:01.262Z,98.20
2018-07-27T00:30:06.375Z,98.60
2018-07-27T00:35:09.644Z,98.80
2018-07-27T00:40:12.904Z,98.70
2018-07-27T00:50:19.986Z,99.40
2018-07-27T00:55:23.290Z,99.90
2018-07-27T01:00:26.659Z,99.90
2018-07-27T01:05:30.138Z,99.90
2018-07-27T01:10:34.117Z,99.90
2018-07-27T01:15:37.407Z,99.90
2018-07-27T01:20:40.943Z,99.90
2018-07-27T01:25:44.216Z,99.90
2018-07-27T01:30:47.496Z,99.90
2018-07-27T01:35:51.416Z,99.90
2018-07-27T01:40:55.476Z,99.90
2018-07-27T01:45:59.461Z,99.90
2018-07-27T01:51:03.284Z,99.90
2018-07-27T01:56:06.559Z,99.90
2018-07-27T02:01:10.361Z,99.90
2018-07-27T02:06:14.113Z,99.90
2018-07-27T02:11:17.669Z,99.90
2018-07-27T02:16:20.953Z,99.90
2018-07-27T02:21:24.230Z,99.90
2018-07-27T02:26:27.600Z,99.90
2018-07-27T02:31:31.115Z,99.90
2018-07-27T02:36:34.447Z,99.90
2018-07-27T02:41:38.184Z,99.90
2018-07-27T02:46:42.664Z,99.90
2018-07-27T02:51:46.429Z,99.90
2018-07-27T02:56:51.744Z,99.90
2018-07-27T03:01:55.622Z,99.90
2018-07-27T03:06:59.343Z,99.90
2018-07-27T03:12:03.692Z,99.90
2018-07-27T03:17:07.480Z,99.90
2018-07-27T03:22:11.157Z,99.90
2018-07-27T03:27:14.937Z,99.90
2018-07-27T03:32:18.265Z,99.90
2018-07-27T03:42:24.522Z,99.90
2018-07-27T03:47:27.808Z,99.90
2018-07-27T03:52:31.079Z,99.90
2018-07-27T03:57:34.354Z,99.90
2018-07-27T04:02:37.619Z,99.90
2018-07-27T04:07:40.900Z,99.90
2018-07-27T04:12:44.306Z,99.90
2018-07-27T04:18:00.681Z,99.90
2018-07-27T04:23:03.982Z,99.90
2018-07-27T04:28:07.255Z,99.90
2018-07-27T04:33:10.545Z,99.90
2018-07-27T04:38:13.826Z,99.90
2018-07-27T04:43:17.080Z,99.90
2018-07-27T04:48:20.367Z,99.90
2018-07-27T04:53:23.648Z,99.90
2018-07-27T04:58:26.912Z,99.90
2018-07-27T05:03:30.188Z,99.90
2018-07-27T05:13:40.782Z,99.90
2018-07-27T05:18:44.079Z,99.90
2018-07-27T05:23:47.356Z,99.90
2018-07-27T05:28:50.607Z,99.90
2018-07-27T05:33:54.074Z,99.90
2018-07-27T05:38:57.581Z,99.90
2018-07-27T05:44:00.850Z,99.00
2018-07-27T05:49:04.127Z,99.90
2018-07-27T05:54:07.471Z,96.90
2018-07-27T05:59:10.729Z,95.40
2018-07-27T06:04:14.024Z,97.20
2018-07-27T06:09:17.295Z,94.80
2018-07-27T06:14:20.632Z,90.10
2018-07-27T06:24:28.769Z,83.80
2018-07-27T06:29:31.982Z,81.30
2018-07-27T06:34:35.243Z,77.90
2018-07-27T06:39:38.511Z,72.10
2018-07-27T06:44:41.850Z,71.00
2018-07-27T06:49:45.126Z,74.70
2018-07-27T06:54:48.394Z,77.10
2018-07-27T06:59:51.670Z,80.40
2018-07-27T07:04:54.948Z,73.40
2018-07-27T07:09:58.246Z,74.10
2018-07-27T07:15:01.521Z,75.70
2018-07-27T07:20:05.829Z,72.80
2018-07-27T07:25:09.185Z,71.30
2018-07-27T07:30:12.439Z,66.10
2018-07-27T07:35:15.687Z,65.70
2018-07-27T07:40:18.988Z,69.40
2018-07-27T07:45:22.267Z,70.00
2018-07-27T07:50:25.808Z,68.00
2018-07-27T08:00:32.099Z,70.50
2018-07-27T08:05:35.368Z,63.30
2018-07-27T08:10:38.652Z,61.30
2018-07-27T08:15:42.521Z,61.80
2018-07-27T08:20:46.511Z,60.50
2018-07-27T08:26:55.659Z,61.40
2018-07-27T08:37:03.140Z,52.90
2018-07-27T08:42:06.920Z,55.00
2018-07-27T08:53:17.433Z,53.50
2018-07-27T08:58:20.775Z,53.40
2018-07-27T09:03:26.404Z,50.10
2018-07-27T09:08:30.521Z,49.30
2018-07-27T09:13:34.046Z,49.10
2018-07-27T09:18:39.860Z,48.90
2018-07-27T09:28:49.351Z,47.90
2018-07-27T09:33:54.609Z,46.90
2018-07-27T09:39:00.242Z,44.40
2018-07-27T09:44:05.657Z,47.40
2018-07-27T09:54:14.518Z,52.30
2018-07-27T09:59:19.391Z,49.80
2018-07-27T10:04:22.841Z,47.80
2018-07-27T10:24:39.456Z,43.40
2018-07-27T10:29:44.950Z,41.30
2018-07-27T10:34:51.229Z,41.30
2018-07-27T10:45:01.017Z,38.20
2018-07-27T10:50:07.328Z,38.90
2018-07-27T10:55:10.772Z,39.50
2018-07-27T11:00:16.603Z,37.90
2018-07-27T11:05:19.939Z,36.50
2018-07-27T11:10:23.304Z,36.50
2018-07-27T11:15:29.317Z,34.90
2018-07-27T11:20:33.402Z,34.10
2018-07-27T11:25:36.762Z,34.40
2018-07-27T11:30:39.996Z,32.40
2018-07-27T11:35:43.257Z,33.10
2018-07-27T11:40:46.507Z,34.40
2018-07-27T11:45:49.777Z,31.90
2018-07-27T11:50:55.186Z,34.00
2018-07-27T11:55:58.999Z,34.20
2018-07-27T12:01:02.721Z,37.40
2018-07-27T12:06:07.787Z,35.30
2018-07-27T12:11:13.334Z,35.90
2018-07-27T12:16:16.948Z,33.60
2018-07-27T12:21:22.123Z,35.10
2018-07-27T12:36:34.756Z,35.60
2018-07-27T12:41:39.627Z,32.10
2018-07-27T12:46:43.631Z,34.00
2018-07-27T12:51:47.203Z,34.30
2018-07-27T12:56:50.495Z,36.40
2018-07-27T13:01:54.960Z,34.10
2018-07-27T13:06:58.892Z,37.30
2018-07-27T13:12:03.716Z,36.80
2018-07-27T13:17:07.692Z,37.30
2018-07-27T13:22:12.242Z,40.20
2018-07-27T13:27:15.539Z,40.10
2018-07-27T13:32:18.816Z,41.40
2018-07-27T13:37:23.504Z,42.30
2018-07-27T13:42:28.051Z,36.00
2018-07-27T13:47:31.383Z,32.50
2018-07-27T13:52:34.769Z,31.30
2018-07-27T13:57:39.009Z,29.20
2018-07-27T14:02:42.246Z,29.80
2018-07-27T14:07:45.938Z,29.10
2018-07-27T14:12:49.221Z,31.80
2018-07-27T14:17:52.513Z,29.90
2018-07-27T14:22:55.799Z,29.40
2018-07-27T14:27:59.136Z,29.70
2018-07-27T14:33:02.688Z,33.40
2018-07-27T14:43:09.179Z,40.00
2018-07-27T14:48:12.488Z,42.00
2018-07-27T14:53:15.788Z,40.90
2018-07-27T14:58:19.127Z,39.00
2018-07-27T15:08:25.635Z,44.10
2018-07-27T15:13:28.980Z,41.20
2018-07-27T15:18:32.293Z,37.00
2018-07-27T15:28:38.678Z,38.50
2018-07-27T15:38:45.453Z,37.70
2018-07-27T15:43:48.837Z,35.50
2018-07-27T15:53:56.665Z,32.20
2018-07-27T15:58:59.952Z,31.50
2018-07-27T16:04:03.531Z,29.70
2018-07-27T16:09:08.470Z,31.00
2018-07-27T16:14:12.154Z,34.00
2018-07-27T16:19:15.795Z,35.80
2018-07-27T16:24:19.147Z,35.40
2018-07-27T16:29:22.560Z,36.90
2018-07-27T16:34:26.249Z,36.50
2018-07-27T16:39:29.540Z,39.00
2018-07-27T16:44:32.831Z,39.20
2018-07-27T16:49:36.118Z,39.40
2018-07-27T16:54:39.387Z,40.20
2018-07-27T16:59:42.705Z,38.20
2018-07-27T17:09:49.622Z,39.40
2018-07-27T17:14:52.910Z,40.50
2018-07-27T17:19:56.216Z,39.90
2018-07-27T17:24:59.618Z,40.00
2018-07-27T17:35:05.861Z,41.20
2018-07-27T17:40:09.624Z,44.10
2018-07-27T17:45:12.930Z,42.40
2018-07-27T17:50:16.226Z,43.50
2018-07-27T18:00:22.651Z,44.70
2018-07-27T18:10:28.922Z,46.10
2018-07-27T18:15:32.231Z,47.50
2018-07-27T18:20:35.514Z,47.10
2018-07-27T18:30:41.829Z,48.10
2018-07-27T18:35:45.087Z,48.50
2018-07-27T18:40:48.514Z,49.40
2018-07-27T18:45:51.844Z,49.30
2018-07-27T19:01:01.179Z,51.60
2018-07-27T19:06:04.511Z,53.80
2018-07-27T19:11:07.794Z,53.70
2018-07-27T19:16:11.307Z,53.90
2018-07-27T19:21:14.546Z,55.10
2018-07-27T19:26:17.794Z,56.80
2018-07-27T19:31:21.203Z,58.20
2018-07-27T19:36:24.496Z,58.40
2018-07-27T19:41:28.542Z,58.80
2018-07-27T19:46:31.793Z,57.40
2018-07-27T19:51:35.066Z,57.20
2018-07-27T19:56:38.402Z,59.10
2018-07-27T20:06:44.735Z,62.50
2018-07-27T20:11:50.044Z,64.90
2018-07-27T20:16:53.353Z,66.20
2018-07-27T20:26:59.668Z,67.20
2018-07-27T20:32:02.938Z,68.10
2018-07-27T20:37:06.702Z,68.70
2018-07-27T20:42:10.017Z,69.60
2018-07-27T20:47:13.338Z,71.10
2018-07-27T20:52:16.653Z,69.30
2018-07-27T21:07:26.029Z,70.70
2018-07-27T21:12:29.315Z,71.10
2018-07-27T21:17:34.410Z,71.90
2018-07-27T21:32:44.641Z,75.20
2018-07-27T21:37:48.126Z,76.00
2018-07-27T21:42:51.404Z,76.60
2018-07-27T21:47:54.802Z,76.80
2018-07-27T21:58:01.944Z,76.90
2018-07-27T22:28:25.009Z,83.80
2018-07-27T22:33:28.420Z,86.70
2018-07-27T22:38:31.736Z,87.00
2018-07-27T22:43:35.035Z,87.10
2018-07-27T22:48:38.482Z,86.90
2018-07-27T22:53:42.339Z,88.00
2018-07-27T22:58:46.358Z,88.20
2018-07-27T23:03:49.717Z,89.70
2018-07-27T23:08:53.071Z,90.60
2018-07-27T23:13:56.795Z,90.80
2018-07-27T23:19:00.580Z,91.40
2018-07-27T23:24:04.130Z,91.70
2018-07-27T23:29:07.606Z,91.20
2018-07-27T23:34:10.884Z,90.90
2018-07-27T23:39:14.560Z,91.10
2018-07-27T23:44:17.811Z,91.80
2018-07-27T23:49:21.172Z,92.00
2018-07-27T23:54:24.579Z,92.90
